Time;durP1;ratioP1;P1;durP2;ratioP2;P2;SDS_P1;SDS_P2;PMS_P1;PMS_P2;Temp;Humidity;BMP_temperature;BMP_pressure;BME280_temperature;BME280_humidity;BME280_pressure;Samples;Min_cycle;Max_cycle;Signal;HPM_P1;HPM_P2
2022/02/15 00:01:08;;;;;;;17.70;10.43;;;7.50;50.30;;;;;;5073321;28;20028;-72
2022/02/15 00:03:34;;;;;;;16.05;8.85;;;7.50;50.30;;;;;;5073378;28;20064;-72
2022/02/15 00:06:00;;;;;;;17.92;9.55;;;7.60;50.40;;;;;;5066217;28;20522;-72
2022/02/15 00:08:26;;;;;;;17.15;9.75;;;7.60;50.40;;;;;;5062959;28;20031;-72
2022/02/15 00:10:52;;;;;;;22.27;9.98;;;7.60;50.40;;;;;;5093524;28;20030;-72
2022/02/15 00:13:18;;;;;;;17.35;10.23;;;7.60;50.30;;;;;;5093405;28;20024;-71
2022/02/15 00:15:44;;;;;;;33.85;11.23;;;7.70;50.50;;;;;;5074838;28;20406;-73
2022/02/15 00:18:11;;;;;;;15.98;10.38;;;7.70;50.50;;;;;;5093719;28;20039;-72
2022/02/15 00:20:37;;;;;;;16.85;9.75;;;7.70;50.40;;;;;;5075354;28;20036;-74
2022/02/15 00:23:03;;;;;;;19.35;10.75;;;7.70;50.40;;;;;;5073175;28;20054;-72
2022/02/15 00:25:28;;;;;;;18.00;10.52;;;7.70;50.50;;;;;;5073181;28;20028;-72
2022/02/15 00:27:54;;;;;;;30.55;11.35;;;7.70;50.50;;;;;;5055175;28;20033;-72
2022/02/15 00:30:21;;;;;;;23.55;11.20;;;7.70;50.50;;;;;;5073091;28;20032;-72
2022/02/15 00:32:47;;;;;;;18.95;11.10;;;7.70;50.50;;;;;;5073133;28;20021;-72
2022/02/15 00:35:13;;;;;;;19.92;10.85;;;7.70;50.40;;;;;;5091258;28;20059;-72
2022/02/15 00:37:40;;;;;;;23.77;12.73;;;7.70;50.50;;;;;;5093272;28;20024;-72
2022/02/15 00:40:07;;;;;;;20.52;11.32;;;7.60;50.50;;;;;;5075133;28;20070;-71
2022/02/15 00:42:33;;;;;;;22.73;11.40;;;7.70;50.60;;;;;;5093035;28;20032;-72
2022/02/15 00:45:00;;;;;;;22.05;11.93;;;7.70;50.70;;;;;;5076839;28;20051;-72
2022/02/15 00:47:26;;;;;;;25.08;11.43;;;7.60;50.50;;;;;;5097183;28;20028;-72
2022/02/15 00:49:52;;;;;;;17.02;9.52;;;7.60;50.40;;;;;;5084505;28;20035;-72
2022/02/15 00:52:18;;;;;;;21.65;11.77;;;7.60;50.40;;;;;;5076726;28;20025;-72
2022/02/15 00:54:44;;;;;;;22.65;11.57;;;7.60;50.50;;;;;;5058805;28;20047;-72
2022/02/15 00:57:10;;;;;;;20.13;12.05;;;7.60;50.50;;;;;;5058763;28;20093;-72
2022/02/15 00:59:37;;;;;;;21.15;12.80;;;7.60;50.50;;;;;;5068810;28;20028;-72
2022/02/15 01:02:03;;;;;;;16.92;11.32;;;7.50;50.40;;;;;;5096934;28;20035;-72
2022/02/15 01:04:29;;;;;;;19.02;10.90;;;7.50;50.40;;;;;;5078379;28;20036;-72
2022/02/15 01:06:55;;;;;;;24.08;10.27;;;7.40;50.30;;;;;;5096543;28;20024;-72
2022/02/15 01:09:21;;;;;;;19.40;10.45;;;7.30;50.20;;;;;;5095217;28;20024;-72
2022/02/15 01:11:46;;;;;;;17.70;10.40;;;7.30;50.40;;;;;;5096524;28;20108;-74
2022/02/15 01:14:12;;;;;;;21.80;10.75;;;7.20;50.40;;;;;;5096246;28;20066;-72
2022/02/15 01:16:38;;;;;;;18.70;10.90;;;7.10;50.50;;;;;;5096453;28;20509;-72
2022/02/15 01:19:04;;;;;;;20.85;11.98;;;7.00;50.60;;;;;;5088539;28;20020;-72
2022/02/15 01:21:30;;;;;;;16.02;9.07;;;7.00;50.80;;;;;;5058162;28;20036;-72
2022/02/15 01:23:56;;;;;;;17.92;10.40;;;6.90;50.90;;;;;;5075776;28;20432;-71
2022/02/15 01:26:22;;;;;;;19.45;10.93;;;6.90;51.00;;;;;;5076330;28;20025;-74
2022/02/15 01:28:49;;;;;;;18.48;10.00;;;6.90;51.20;;;;;;5075687;28;20414;-72
2022/02/15 01:31:15;;;;;;;16.92;10.10;;;6.90;51.30;;;;;;5057777;28;20087;-72
2022/02/15 01:33:41;;;;;;;22.00;10.93;;;6.90;51.40;;;;;;5085694;28;20083;-72
2022/02/15 01:36:07;;;;;;;21.30;11.30;;;6.90;51.50;;;;;;5095876;28;20533;-73
2022/02/15 01:38:32;;;;;;;16.08;9.57;;;6.90;51.60;;;;;;5095560;28;20024;-72
2022/02/15 01:40:58;;;;;;;18.98;10.80;;;6.90;51.60;;;;;;5096240;28;20024;-75
2022/02/15 01:43:24;;;;;;;18.70;10.23;;;6.90;51.50;;;;;;5096083;28;20478;-72
2022/02/15 01:45:50;;;;;;;19.70;11.60;;;6.90;51.60;;;;;;5077834;28;20024;-72
2022/02/15 01:48:16;;;;;;;18.70;10.18;;;6.90;51.70;;;;;;5096088;28;20016;-72
2022/02/15 01:50:42;;;;;;;20.77;10.88;;;6.90;51.50;;;;;;5095655;28;20028;-72
2022/02/15 01:53:07;;;;;;;17.92;10.88;;;6.80;51.40;;;;;;5095537;28;20058;-72
2022/02/15 01:55:37;;;;;;;20.55;11.00;;;6.80;51.30;;;;;;5077323;28;20039;-72
2022/02/15 01:58:03;;;;;;;16.58;9.95;;;6.70;51.40;;;;;;5076998;28;20028;-72
2022/02/15 02:00:29;;;;;;;18.55;10.15;;;6.70;51.30;;;;;;5077604;28;20031;-72
2022/02/15 02:02:55;;;;;;;18.13;9.93;;;6.70;51.50;;;;;;5092959;28;20032;-71
2022/02/15 02:08:05;;;;;;;;;;;6.60;51.60;;;;;;5095934;28;20081;-72
2022/02/15 02:10:31;;;;;;;21.05;10.45;;;6.60;51.30;;;;;;5095410;28;19908;-71
2022/02/15 02:12:57;;;;;;;15.70;9.68;;;6.50;51.40;;;;;;5095545;28;20117;-71
2022/02/15 02:15:25;;;;;;;24.05;10.98;;;6.50;51.50;;;;;;5077317;28;20085;-72
2022/02/15 02:17:52;;;;;;;17.55;10.05;;;6.40;51.70;;;;;;5074153;28;20024;-72
2022/02/15 02:20:18;;;;;;;24.60;11.45;;;6.40;51.80;;;;;;5057332;28;20392;-71
2022/02/15 02:22:44;;;;;;;19.52;10.85;;;6.40;51.90;;;;;;5057229;28;20028;-72
2022/02/15 02:25:12;;;;;;;21.15;11.57;;;6.30;52.10;;;;;;5073885;28;20454;-72
2022/02/15 02:27:39;;;;;;;22.77;11.40;;;6.30;52.20;;;;;;5095193;28;20031;-72
2022/02/15 02:30:06;;;;;;;21.08;11.25;;;6.20;52.40;;;;;;5073027;28;20461;-71
2022/02/15 02:32:32;;;;;;;22.30;12.65;;;6.20;52.50;;;;;;5056984;28;20032;-71
2022/02/15 02:35:01;;;;;;;20.23;11.63;;;6.20;52.60;;;;;;5056346;28;20087;-71
2022/02/15 02:37:28;;;;;;;23.20;11.73;;;6.10;52.70;;;;;;5074837;28;20044;-72
2022/02/15 02:39:55;;;;;;;18.80;11.30;;;6.10;52.70;;;;;;5061626;28;20067;-71
2022/02/15 02:42:26;;;;;;;20.75;11.73;;;6.10;52.80;;;;;;5094717;28;20391;-72
2022/02/15 02:44:58;;;;;;;22.45;12.60;;;6.10;53.00;;;;;;5095246;28;20039;-72
2022/02/15 02:47:25;;;;;;;24.73;13.23;;;6.10;53.20;;;;;;5094969;28;20091;-72
2022/02/15 02:49:51;;;;;;;19.08;10.88;;;6.10;53.30;;;;;;5089450;28;20103;-71
2022/02/15 02:52:18;;;;;;;16.90;10.00;;;6.10;53.30;;;;;;5074571;28;20039;-71
2022/02/15 02:54:43;;;;;;;22.88;11.43;;;6.10;53.20;;;;;;5056481;28;20032;-73
2022/02/15 02:57:12;;;;;;;22.13;11.27;;;6.20;53.20;;;;;;5074114;28;20104;-72
2022/02/15 02:59:42;;;;;;;23.42;11.30;;;6.20;53.20;;;;;;5059539;28;20061;-71
2022/02/15 03:02:09;;;;;;;22.10;10.95;;;6.20;53.30;;;;;;5076285;28;20028;-72
2022/02/15 03:04:36;;;;;;;21.88;12.57;;;6.20;53.30;;;;;;5076610;28;20085;-72
2022/02/15 03:07:03;;;;;;;26.35;12.45;;;6.30;53.30;;;;;;5076027;28;20028;-71
2022/02/15 03:09:28;;;;;;;25.20;13.32;;;6.30;53.40;;;;;;5074478;28;20069;-71
2022/02/15 03:11:54;;;;;;;23.23;11.77;;;6.30;53.40;;;;;;5056064;28;20029;-72
2022/02/15 03:14:20;;;;;;;27.55;13.38;;;6.40;53.40;;;;;;5074100;28;20033;-72
2022/02/15 03:16:46;;;;;;;26.15;13.13;;;6.40;53.50;;;;;;5079271;28;20502;-72
2022/02/15 03:19:12;;;;;;;22.08;12.98;;;6.40;53.60;;;;;;5090985;28;20036;-72
2022/02/15 03:21:38;;;;;;;27.63;14.20;;;6.40;53.60;;;;;;5055777;28;20380;-72
2022/02/15 03:24:04;;;;;;;25.10;15.07;;;6.40;53.50;;;;;;5056015;28;20024;-71
2022/02/15 03:26:30;;;;;;;20.33;13.30;;;6.40;53.50;;;;;;5074197;28;20099;-71
2022/02/15 03:28:56;;;;;;;23.83;13.82;;;6.40;53.60;;;;;;5073729;28;20127;-72
2022/02/15 03:31:22;;;;;;;21.55;12.30;;;6.40;53.60;;;;;;5073831;28;20032;-71
2022/02/15 03:33:49;;;;;;;19.52;11.57;;;6.50;53.70;;;;;;5055424;28;20070;-71
2022/02/15 03:36:15;;;;;;;21.48;13.10;;;6.50;53.80;;;;;;5084281;28;20028;-71
2022/02/15 03:38:41;;;;;;;22.15;13.07;;;6.60;53.80;;;;;;5075280;28;20028;-71
2022/02/15 03:43:54;;;;;;;21.73;12.88;;;6.60;53.80;;;;;;5093702;28;20437;-72
2022/02/15 03:46:21;;;;;;;29.05;13.13;;;6.70;53.70;;;;;;5075676;28;20058;-71
2022/02/15 03:48:47;;;;;;;20.15;11.82;;;6.70;53.60;;;;;;5092439;28;20027;-72
2022/02/15 03:51:13;;;;;;;22.55;12.82;;;6.70;53.60;;;;;;5075093;28;20032;-72
2022/02/15 03:53:39;;;;;;;20.90;12.40;;;6.80;53.60;;;;;;5093343;28;20077;-72
2022/02/15 03:56:05;;;;;;;22.00;12.35;;;6.80;53.60;;;;;;5063257;28;20039;-72
2022/02/15 03:58:32;;;;;;;21.42;13.40;;;6.80;53.60;;;;;;5067784;28;20036;-72
2022/02/15 04:00:58;;;;;;;23.27;12.90;;;6.80;53.50;;;;;;5076633;28;20475;-71
2022/02/15 04:03:24;;;;;;;19.33;11.68;;;6.90;53.50;;;;;;5054898;28;20036;-73
2022/02/15 04:05:49;;;;;;;19.48;11.70;;;6.90;53.50;;;;;;5073298;28;20099;-72
2022/02/15 04:08:15;;;;;;;20.05;11.77;;;6.90;53.40;;;;;;5055068;28;20077;-72
2022/02/15 04:10:41;;;;;;;25.42;14.23;;;6.90;53.40;;;;;;5073209;28;20515;-71
2022/02/15 04:13:07;;;;;;;27.15;14.10;;;6.90;53.40;;;;;;5073236;28;20048;-73
2022/02/15 04:15:33;;;;;;;21.25;12.85;;;7.00;53.50;;;;;;5062325;28;20391;-72
2022/02/15 04:17:58;;;;;;;20.98;12.27;;;7.00;53.40;;;;;;5075251;28;20050;-71
2022/02/15 04:20:24;;;;;;;23.17;13.48;;;7.00;53.30;;;;;;5084613;28;20029;-72
2022/02/15 04:22:50;;;;;;;23.60;13.27;;;7.00;53.30;;;;;;5079804;28;20024;-72
2022/02/15 04:25:16;;;;;;;23.10;12.93;;;7.00;53.50;;;;;;5080191;28;20020;-72
2022/02/15 04:27:42;;;;;;;23.33;12.07;;;7.00;53.60;;;;;;5061843;28;20426;-71
2022/02/15 04:30:09;;;;;;;24.23;13.20;;;7.10;53.60;;;;;;5079605;28;20029;-72
2022/02/15 04:32:35;;;;;;;20.40;12.02;;;7.10;53.60;;;;;;5078180;28;20036;-72
2022/02/15 04:35:01;;;;;;;22.70;13.57;;;7.10;53.40;;;;;;5079209;28;20052;-72
2022/02/15 04:37:27;;;;;;;19.58;11.77;;;7.10;53.30;;;;;;5079758;28;20436;-72
2022/02/15 04:39:52;;;;;;;21.40;12.98;;;7.10;53.20;;;;;;5079248;28;20028;-71
2022/02/15 04:42:18;;;;;;;20.77;12.60;;;7.10;53.20;;;;;;5073310;28;20054;-72
2022/02/15 04:44:44;;;;;;;19.98;11.95;;;7.10;53.20;;;;;;5098641;28;20036;-72
2022/02/15 04:47:10;;;;;;;23.73;13.82;;;7.10;53.30;;;;;;5099621;28;20024;-72
2022/02/15 04:49:36;;;;;;;28.25;14.77;;;7.20;53.50;;;;;;5099785;28;20519;-73
2022/02/15 04:52:01;;;;;;;21.52;12.98;;;7.20;53.40;;;;;;5099501;28;20160;-72
2022/02/15 04:54:28;;;;;;;25.20;13.38;;;7.20;53.20;;;;;;5099749;28;20077;-72
2022/02/15 04:56:54;;;;;;;22.52;13.05;;;7.20;53.20;;;;;;5080690;28;20024;-72
2022/02/15 04:59:20;;;;;;;18.63;11.45;;;7.20;53.10;;;;;;5099052;28;20099;-73
2022/02/15 05:01:47;;;;;;;18.08;11.88;;;7.20;53.00;;;;;;5081576;28;20031;-72
2022/02/15 05:06:58;;;;;;;;;;;7.30;53.00;;;;;;5099878;28;20030;-72
2022/02/15 05:09:25;;;;;;;21.70;12.00;;;7.30;52.90;;;;;;5098571;28;19908;-72
2022/02/15 05:11:51;;;;;;;20.38;12.68;;;7.30;52.70;;;;;;5099641;28;20024;-71
2022/02/15 05:14:17;;;;;;;23.42;12.43;;;7.30;52.70;;;;;;5091094;28;20031;-71
2022/02/15 05:16:43;;;;;;;18.45;12.00;;;7.30;52.70;;;;;;5061327;28;20033;-71
2022/02/15 05:19:09;;;;;;;22.48;11.85;;;7.30;52.60;;;;;;5079310;28;20027;-71
2022/02/15 05:21:34;;;;;;;22.17;13.82;;;7.30;52.60;;;;;;5079091;28;20029;-71
2022/02/15 05:24:04;;;;;;;22.52;12.48;;;7.30;52.70;;;;;;5061079;28;20361;-71
2022/02/15 05:26:30;;;;;;;22.58;14.30;;;7.30;52.70;;;;;;5079117;28;20027;-71
2022/02/15 05:28:55;;;;;;;30.10;15.40;;;7.30;52.80;;;;;;5079029;28;20025;-71
2022/02/15 05:31:21;;;;;;;29.35;15.68;;;7.30;53.00;;;;;;5058185;28;20460;-71
2022/02/15 05:33:47;;;;;;;22.95;13.38;;;7.30;53.00;;;;;;5082392;28;20067;-72
2022/02/15 05:36:13;;;;;;;24.85;13.32;;;7.40;53.10;;;;;;5095500;28;20024;-71
2022/02/15 05:38:39;;;;;;;26.42;12.65;;;7.40;53.10;;;;;;5096029;28;20031;-72
2022/02/15 05:41:05;;;;;;;27.02;13.57;;;7.40;53.00;;;;;;5096161;28;20024;-72
2022/02/15 05:43:30;;;;;;;20.92;13.13;;;7.40;53.10;;;;;;5077358;28;20460;-71
2022/02/15 05:45:56;;;;;;;26.48;14.88;;;7.40;53.10;;;;;;5096293;28;20032;-72
2022/02/15 05:48:22;;;;;;;28.10;15.60;;;7.40;53.10;;;;;;5080139;28;20363;-72
2022/02/15 05:50:51;;;;;;;27.10;14.68;;;7.40;53.10;;;;;;5076503;28;20464;-70
2022/02/15 05:53:28;;;;;;;23.70;15.43;;;7.40;53.00;;;;;;5075573;28;20036;-76
2022/02/15 05:55:58;;;;;;;24.77;15.15;;;7.40;52.90;;;;;;5057700;28;20028;-73
2022/02/15 05:58:24;;;;;;;26.75;14.95;;;7.40;52.90;;;;;;5076490;28;20405;-73
2022/02/15 06:00:50;;;;;;;27.73;15.65;;;7.40;52.90;;;;;;5057179;28;20116;-75
2022/02/15 06:06:01;;;;;;;21.02;13.07;;;7.40;52.80;;;;;;5094493;28;20119;-75
2022/02/15 06:08:27;;;;;;;23.13;14.80;;;7.50;52.90;;;;;;5076164;28;20054;-74
2022/02/15 06:10:53;;;;;;;30.00;15.68;;;7.40;52.90;;;;;;5090030;28;20025;-74
2022/02/15 06:13:19;;;;;;;26.58;14.98;;;7.40;53.00;;;;;;5072629;28;20042;-75
2022/02/15 06:15:46;;;;;;;32.83;15.40;;;7.40;53.10;;;;;;5091050;28;20364;-76
2022/02/15 06:18:12;;;;;;;23.30;14.85;;;7.40;53.20;;;;;;5073919;28;20042;-75
2022/02/15 06:20:38;;;;;;;22.40;14.27;;;7.40;53.20;;;;;;5072317;28;20032;-75
2022/02/15 06:23:04;;;;;;;23.38;13.52;;;7.40;53.30;;;;;;5091554;28;20071;-73
2022/02/15 06:25:30;;;;;;;30.67;14.40;;;7.40;53.40;;;;;;5093849;28;20020;-74
2022/02/15 06:27:56;;;;;;;26.95;15.60;;;7.40;53.70;;;;;;5076962;28;20425;-71
2022/02/15 06:30:22;;;;;;;27.25;14.48;;;7.40;53.80;;;;;;5093871;28;20031;-71
2022/02/15 06:32:48;;;;;;;26.85;14.55;;;7.30;53.90;;;;;;5071695;28;20040;-73
2022/02/15 06:35:15;;;;;;;22.10;13.98;;;7.30;54.20;;;;;;5054361;28;20048;-72
2022/02/15 06:37:46;;;;;;;29.02;13.65;;;7.40;54.20;;;;;;5078356;28;20025;-72
2022/02/15 06:40:13;;;;;;;21.95;13.10;;;7.40;54.30;;;;;;5056052;28;20438;-76
2022/02/15 06:42:39;;;;;;;33.50;15.18;;;7.40;54.30;;;;;;5089521;28;20029;-70
2022/02/15 06:45:06;;;;;;;34.58;14.40;;;7.50;54.30;;;;;;5069196;28;20483;-70
2022/02/15 06:47:33;;;;;;;33.88;14.05;;;7.50;54.30;;;;;;5067209;28;20168;-70
2022/02/15 06:49:59;;;;;;;23.98;12.93;;;7.60;54.30;;;;;;5081454;28;20103;-73
2022/02/15 06:52:26;;;;;;;20.10;12.80;;;7.70;54.30;;;;;;5076064;28;20103;-74
2022/02/15 06:54:52;;;;;;;23.25;14.35;;;7.80;54.30;;;;;;5075086;28;20093;-74
2022/02/15 06:57:18;;;;;;;25.98;14.95;;;7.80;54.20;;;;;;5059865;28;20028;-71
2022/02/15 06:59:44;;;;;;;28.98;16.13;;;7.90;54.10;;;;;;5083061;28;20028;-71
2022/02/15 07:02:10;;;;;;;27.15;15.45;;;8.00;54.70;;;;;;5086682;28;20464;-74
2022/02/15 07:04:36;;;;;;;25.98;15.73;;;8.00;54.30;;;;;;5077492;28;20456;-72
2022/02/15 07:07:02;;;;;;;25.73;16.65;;;8.10;54.40;;;;;;5073720;28;20058;-75
2022/02/15 07:09:28;;;;;;;25.73;14.25;;;8.10;54.20;;;;;;5094369;28;20032;-72
2022/02/15 07:11:54;;;;;;;27.58;16.65;;;8.10;54.10;;;;;;5080567;28;20103;-74
2022/02/15 07:14:20;;;;;;;25.67;16.27;;;8.20;54.20;;;;;;5088033;28;20031;-75
2022/02/15 07:16:46;;;;;;;25.70;16.52;;;8.20;54.20;;;;;;5086572;28;20391;-74
2022/02/15 07:19:13;;;;;;;26.85;16.70;;;8.10;54.00;;;;;;5055999;28;20388;-74
2022/02/15 07:21:39;;;;;;;25.80;14.73;;;8.10;54.10;;;;;;5066661;28;20564;-73
2022/02/15 07:24:05;;;;;;;29.77;16.13;;;8.10;54.30;;;;;;5093937;28;20056;-73
2022/02/15 07:26:32;;;;;;;25.25;15.20;;;8.10;54.50;;;;;;5093929;28;20077;-71
2022/02/15 07:28:58;;;;;;;28.17;16.13;;;8.10;54.50;;;;;;5093902;28;20031;-71
2022/02/15 07:31:23;;;;;;;24.48;15.02;;;8.10;54.80;;;;;;5090876;28;20431;-72
2022/02/15 07:33:50;;;;;;;28.25;16.23;;;8.10;55.00;;;;;;5091917;28;20059;-73
2022/02/15 07:36:16;;;;;;;24.92;15.70;;;8.10;55.00;;;;;;5085808;28;20464;-74
2022/02/15 07:38:42;;;;;;;22.98;13.68;;;8.10;55.00;;;;;;5082194;28;20028;-71
2022/02/15 07:41:08;;;;;;;23.10;13.68;;;8.00;55.50;;;;;;5100986;28;20026;-73
2022/02/15 07:43:41;;;;;;;25.77;13.73;;;8.00;55.00;;;;;;5068660;28;20369;-72
2022/02/15 07:46:21;;;;;;;22.10;13.05;;;8.00;55.20;;;;;;5084771;28;20024;-72
2022/02/15 07:48:55;;;;;;;23.08;14.00;;;8.10;55.40;;;;;;5066086;28;20028;-72
2022/02/15 07:51:32;;;;;;;22.30;13.43;;;8.00;55.50;;;;;;5078696;28;20020;-71
2022/02/15 07:54:08;;;;;;;25.00;14.88;;;8.00;55.50;;;;;;5081785;28;20052;-72
2022/02/15 07:56:35;;;;;;;24.35;13.98;;;8.10;55.60;;;;;;5075043;28;20051;-72
2022/02/15 07:59:08;;;;;;;21.02;13.27;;;8.10;55.50;;;;;;5089952;28;20037;-71
2022/02/15 08:01:41;;;;;;;23.20;13.30;;;8.10;55.50;;;;;;5076402;28;20032;-72
2022/02/15 08:04:15;;;;;;;29.08;15.95;;;8.10;55.60;;;;;;5072036;28;20036;-76
2022/02/15 08:06:56;;;;;;;25.97;14.73;;;8.20;55.50;;;;;;5085078;28;20504;-75
2022/02/15 08:09:29;;;;;;;24.27;14.85;;;8.20;55.50;;;;;;5073226;28;20345;-73
2022/02/15 08:12:08;;;;;;;35.53;15.35;;;8.10;55.40;;;;;;5057257;28;20032;-76
2022/02/15 08:14:42;;;;;;;22.63;14.05;;;8.10;55.40;;;;;;5061173;28;20068;-79
2022/02/15 08:17:08;;;;;;;20.08;13.10;;;8.20;55.40;;;;;;5075341;28;20028;-75
2022/02/15 08:19:42;;;;;;;28.63;15.38;;;8.20;55.50;;;;;;5089926;28;20035;-74
2022/02/15 08:22:19;;;;;;;25.10;13.98;;;8.20;55.70;;;;;;5062679;28;20028;-74
2022/02/15 08:24:52;;;;;;;24.17;14.50;;;8.20;55.50;;;;;;5072646;28;20380;-74
2022/02/15 08:27:25;;;;;;;28.85;15.07;;;8.20;55.40;;;;;;5063700;28;20086;-74
2022/02/15 08:29:51;;;;;;;28.90;14.40;;;8.20;55.40;;;;;;5087776;28;20047;-75
2022/02/15 08:32:24;;;;;;;28.83;15.63;;;8.20;55.50;;;;;;5074231;28;20028;-78
2022/02/15 08:34:57;;;;;;;28.88;13.77;;;8.30;55.60;;;;;;5070490;28;20171;-78
2022/02/15 08:37:32;;;;;;;27.00;16.50;;;8.30;55.70;;;;;;5075147;28;20051;-78
2022/02/15 08:40:06;;;;;;;27.83;14.20;;;8.20;55.80;;;;;;5073020;28;20690;-83
2022/02/15 08:42:37;;;;;;;;;;;8.20;55.80;;;;;;5075690;28;20115;-84
2022/02/15 08:45:11;;;;;;;23.60;13.90;;;8.20;55.40;;;;;;5072233;28;19911;-83
2022/02/15 08:47:46;;;;;;;23.20;13.27;;;8.20;55.70;;;;;;5072230;28;20028;-87
2022/02/15 08:50:19;;;;;;;24.45;13.43;;;8.20;56.10;;;;;;5091901;28;20076;-84
2022/02/15 08:52:51;;;;;;;28.83;15.25;;;8.10;56.10;;;;;;5093432;28;20020;-82
2022/02/15 08:55:24;;;;;;;23.40;13.68;;;8.10;56.50;;;;;;5067145;28;20043;-85
2022/02/15 08:57:57;;;;;;;21.90;13.32;;;8.10;56.70;;;;;;5070911;28;20049;-83
2022/02/15 09:00:30;;;;;;;21.23;12.23;;;8.10;56.90;;;;;;5093032;28;20031;-80
2022/02/15 09:03:02;;;;;;;25.25;13.63;;;8.10;57.20;;;;;;5075153;28;20028;-80
2022/02/15 09:05:35;;;;;;;22.42;13.77;;;8.20;57.30;;;;;;5075559;28;20076;-82
2022/02/15 09:08:09;;;;;;;20.35;12.07;;;8.20;57.40;;;;;;5058724;28;20029;-71
2022/02/15 09:10:43;;;;;;;26.13;13.90;;;8.30;57.50;;;;;;5059052;28;20538;-73
2022/02/15 09:13:15;;;;;;;31.40;15.13;;;8.40;57.50;;;;;;5069495;28;20356;-77
2022/02/15 09:15:49;;;;;;;29.95;18.13;;;8.50;57.40;;;;;;5093564;28;20103;-83
2022/02/15 09:18:22;;;;;;;21.50;13.95;;;8.60;57.30;;;;;;5063541;28;20035;-78
2022/02/15 09:20:56;;;;;;;23.63;14.73;;;8.60;57.30;;;;;;5074729;28;20169;-74
2022/02/15 09:23:29;;;;;;;28.10;15.77;;;8.70;57.20;;;;;;5057726;28;20384;-80
2022/02/15 09:26:02;;;;;;;30.80;14.10;;;8.70;57.10;;;;;;5072970;28;20098;-77
2022/02/15 09:28:33;;;;;;;25.85;14.90;;;8.70;57.20;;;;;;5097971;28;20077;-82
2022/02/15 09:31:05;;;;;;;29.13;16.00;;;8.70;57.20;;;;;;5087021;28;20486;-81
2022/02/15 09:33:37;;;;;;;31.58;17.15;;;8.70;57.20;;;;;;5070931;28;20053;-86
2022/02/15 09:36:09;;;;;;;27.27;16.85;;;8.60;57.10;;;;;;5064419;28;20384;-86
2022/02/15 09:38:42;;;;;;;24.38;15.95;;;8.50;57.20;;;;;;5089392;28;20020;-78
2022/02/15 09:41:14;;;;;;;27.60;16.60;;;8.50;57.50;;;;;;5095883;28;20027;-82
2022/02/15 09:43:48;;;;;;;24.80;15.77;;;8.50;57.80;;;;;;5077989;28;20050;-70
2022/02/15 09:46:21;;;;;;;23.70;15.15;;;8.50;58.00;;;;;;5074757;28;20388;-70
2022/02/15 09:48:55;;;;;;;29.00;17.45;;;8.50;58.20;;;;;;5075745;28;20025;-69
2022/02/15 09:51:28;;;;;;;22.17;14.77;;;8.50;58.30;;;;;;5074147;28;20025;-70
2022/02/15 09:54:01;;;;;;;26.40;15.07;;;8.50;58.40;;;;;;5074834;28;20032;-75
2022/02/15 09:56:33;;;;;;;34.08;18.60;;;8.50;58.60;;;;;;5076776;28;20028;-77
2022/02/15 09:59:02;;;;;;;25.83;16.77;;;8.40;58.50;;;;;;5078862;28;20028;-76
2022/02/15 10:01:35;;;;;;;28.42;17.15;;;8.40;58.70;;;;;;5095662;28;20023;-73
2022/02/15 10:04:12;;;;;;;23.98;16.17;;;8.30;58.80;;;;;;5074992;28;20119;-72
2022/02/15 10:06:45;;;;;;;29.60;17.55;;;8.30;59.00;;;;;;5070598;28;20065;-71
2022/02/15 10:09:16;;;;;;;26.13;16.40;;;8.30;59.30;;;;;;5090670;28;20094;-72
2022/02/15 10:11:48;;;;;;;33.28;18.10;;;8.30;59.50;;;;;;5094833;28;20107;-72
2022/02/15 10:14:21;;;;;;;27.20;15.90;;;8.20;59.80;;;;;;5077653;28;20081;-73
2022/02/15 10:16:55;;;;;;;29.70;16.40;;;8.20;60.10;;;;;;5089497;28;20451;-72
2022/02/15 10:19:30;;;;;;;25.17;15.48;;;8.20;61.00;;;;;;5074908;28;20119;-72
2022/02/15 10:22:05;;;;;;;27.25;16.80;;;8.20;60.70;;;;;;5088576;28;20050;-74
2022/02/15 10:24:42;;;;;;;29.42;17.42;;;8.20;61.00;;;;;;5076332;28;20056;-73
2022/02/15 10:27:19;;;;;;;25.38;15.63;;;8.20;61.40;;;;;;5090345;28;20455;-73
2022/02/15 10:29:52;;;;;;;27.75;17.38;;;8.20;61.70;;;;;;5074006;28;20419;-73
2022/02/15 10:32:24;;;;;;;23.67;15.20;;;8.20;62.20;;;;;;5072991;28;20051;-73
2022/02/15 10:35:01;;;;;;;25.33;15.57;;;8.20;62.60;;;;;;5081073;28;20070;-73
2022/02/15 10:37:31;;;;;;;27.35;16.67;;;8.20;62.90;;;;;;5076083;28;20028;-77
2022/02/15 10:40:01;;;;;;;24.60;16.02;;;8.30;63.10;;;;;;5073390;28;20112;-84
2022/02/15 10:42:30;;;;;;;26.02;15.98;;;8.40;63.40;;;;;;5056042;28;20039;-78
2022/02/15 10:45:10;;;;;;;26.70;17.38;;;8.40;63.40;;;;;;5063547;28;20028;-77
2022/02/15 10:47:38;;;;;;;25.42;16.48;;;8.50;63.20;;;;;;5076196;28;20028;-77
2022/02/15 10:50:12;;;;;;;24.50;15.60;;;8.50;62.80;;;;;;5076616;28;20066;-78
2022/02/15 10:52:41;;;;;;;31.00;17.20;;;8.50;62.80;;;;;;5059620;28;20040;-78
2022/02/15 10:55:08;;;;;;;23.80;16.25;;;8.60;63.50;;;;;;5063618;28;20034;-79
2022/02/15 10:57:36;;;;;;;34.15;16.73;;;8.60;62.40;;;;;;5078531;28;20115;-79
2022/02/15 11:00:05;;;;;;;24.58;16.40;;;8.60;62.40;;;;;;5073100;28;20075;-79
2022/02/15 11:02:31;;;;;;;28.95;17.50;;;8.70;62.70;;;;;;5072674;28;20024;-74
2022/02/15 11:05:03;;;;;;;26.95;15.18;;;8.70;62.80;;;;;;5059879;28;20094;-79
2022/02/15 11:07:31;;;;;;;24.63;15.05;;;8.70;62.90;;;;;;5069744;28;20072;-80
2022/02/15 11:10:16;;;;;;;24.95;15.38;;;8.70;63.10;;;;;;5072656;28;20055;-81
2022/02/15 11:12:47;;;;;;;27.50;15.20;;;8.70;63.80;;;;;;5064332;28;20028;-76
2022/02/15 11:15:23;;;;;;;25.60;14.68;;;8.80;63.90;;;;;;5068812;28;20051;-75
2022/02/15 11:18:03;;;;;;;26.38;15.98;;;8.90;64.30;;;;;;5079305;28;20024;-79
2022/02/15 11:20:50;;;;;;;25.50;14.68;;;9.10;64.40;;;;;;5055961;28;20032;-77
2022/02/15 11:23:23;;;;;;;27.95;16.80;;;9.20;64.20;;;;;;5059421;28;20032;-75
2022/02/15 11:26:13;;;;;;;24.52;16.30;;;9.20;63.60;;;;;;5073865;28;20058;-80
2022/02/15 11:28:51;;;;;;;24.77;15.60;;;9.30;63.40;;;;;;5081000;28;20028;-74
2022/02/15 11:31:43;;;;;;;26.42;15.73;;;9.40;63.40;;;;;;5094023;28;20395;-74
2022/02/15 11:34:13;;;;;;;26.70;15.55;;;9.40;63.10;;;;;;5084739;28;20057;-75
2022/02/15 11:36:50;;;;;;;25.98;16.58;;;9.50;62.80;;;;;;5058160;28;20129;-75
2022/02/15 11:39:21;;;;;;;23.48;16.00;;;9.50;62.50;;;;;;5070506;28;20059;-75
2022/02/15 11:41:58;;;;;;;20.40;14.35;;;9.60;62.30;;;;;;5075595;28;20028;-75
2022/02/15 11:44:29;;;;;;;25.42;15.60;;;9.60;63.10;;;;;;5092225;28;20103;-79
2022/02/15 11:46:54;;;;;;;24.17;15.93;;;9.60;62.50;;;;;;5081652;28;20026;-77
2022/02/15 11:49:23;;;;;;;25.35;17.13;;;9.60;62.40;;;;;;5072478;28;20490;-76
2022/02/15 11:51:49;;;;;;;25.38;15.27;;;9.60;62.10;;;;;;5089092;28;20467;-77
2022/02/15 11:54:23;;;;;;;22.13;15.35;;;9.70;62.10;;;;;;5069727;28;20051;-84
2022/02/15 11:56:50;;;;;;;;;;;9.70;62.10;;;;;;5073373;28;20032;-84
2022/02/15 11:59:23;;;;;;;24.75;16.45;;;9.70;61.50;;;;;;5053579;28;19991;-85
2022/02/15 12:02:01;;;;;;;24.65;16.17;;;9.80;61.70;;;;;;5056038;28;20020;-86
2022/02/15 12:04:28;;;;;;;24.73;16.27;;;9.80;61.70;;;;;;5055881;28;20028;-87
2022/02/15 12:06:54;;;;;;;29.63;16.70;;;9.80;61.70;;;;;;5055773;28;20032;-87
2022/02/15 12:09:38;;;;;;;23.00;15.20;;;9.90;62.00;;;;;;5056258;28;20032;-86
2022/02/15 12:12:11;;;;;;;25.25;15.65;;;9.90;62.20;;;;;;5056555;28;20025;-88
2022/02/15 12:14:37;;;;;;;23.83;15.70;;;9.90;62.30;;;;;;5056589;28;20085;-87
2022/02/15 12:17:03;;;;;;;26.63;16.00;;;10.00;62.20;;;;;;5056582;28;20036;-89
2022/02/15 12:19:33;;;;;;;26.05;16.73;;;10.00;62.10;;;;;;5056342;28;20025;-88
2022/02/15 12:22:02;;;;;;;22.73;14.98;;;10.10;61.80;;;;;;5056791;28;20056;-87
2022/02/15 12:24:30;;;;;;;22.23;15.48;;;10.10;61.70;;;;;;5056293;28;20041;-89
2022/02/15 12:26:59;;;;;;;20.80;14.88;;;10.10;61.60;;;;;;5074286;28;20411;-87
2022/02/15 12:29:26;;;;;;;22.38;15.50;;;10.10;61.60;;;;;;5055988;28;20127;-83
2022/02/15 12:32:09;;;;;;;24.48;15.57;;;10.10;61.50;;;;;;5055383;28;20030;-83
2022/02/15 12:34:35;;;;;;;24.48;16.20;;;10.10;61.30;;;;;;5051720;28;20063;-82
2022/02/15 12:37:02;;;;;;;24.10;15.20;;;10.10;61.50;;;;;;5051987;28;20029;-82
2022/02/15 12:39:37;;;;;;;23.23;15.35;;;10.10;61.70;;;;;;5054946;28;20056;-82
2022/02/15 12:42:18;;;;;;;31.40;17.38;;;10.20;61.80;;;;;;5076518;28;20028;-82
2022/02/15 12:45:08;;;;;;;28.80;18.33;;;10.20;61.40;;;;;;5058910;28;20032;-82
2022/02/15 12:47:37;;;;;;;22.20;15.75;;;10.20;60.80;;;;;;5058682;28;20078;-81
2022/02/15 12:50:04;;;;;;;27.95;17.65;;;10.10;60.30;;;;;;5058999;28;20052;-81
2022/02/15 12:52:32;;;;;;;29.73;17.88;;;10.10;60.50;;;;;;5076758;28;20053;-81
2022/02/15 12:55:01;;;;;;;26.77;17.80;;;10.00;60.40;;;;;;5058841;28;20035;-81
2022/02/15 12:57:27;;;;;;;30.98;19.13;;;10.00;60.30;;;;;;5058506;28;20024;-81